Time;durP1;ratioP1;P1;durP2;ratioP2;P2;SDS_P1;SDS_P2;PMS_P1;PMS_P2;Temp;Humidity;BMP_temperature;BMP_pressure;BME280_temperature;BME280_humidity;BME280_pressure;Samples;Min_cycle;Max_cycle;Signal;HPM_P1;HPM_P2
2022/04/23 00:00:22;;;;;;;16.15;8.10;;;11.30;99.90;;;;;;4981708;28;276998;-78
2022/04/23 00:02:49;;;;;;;16.40;8.88;;;11.30;99.90;;;;;;4962780;28;20041;-78
2022/04/23 00:05:15;;;;;;;17.48;9.07;;;11.30;99.90;;;;;;4971787;28;259129;-79
2022/04/23 00:07:41;;;;;;;15.25;9.57;;;11.30;99.90;;;;;;4960211;28;20069;-78
2022/04/23 00:10:10;;;;;;;16.55;10.07;;;11.30;99.90;;;;;;4961256;28;71693;-78
2022/04/23 00:12:37;;;;;;;15.77;9.35;;;11.30;99.90;;;;;;4955506;28;20134;-80
2022/04/23 00:15:06;;;;;;;16.10;10.55;;;11.30;99.90;;;;;;4957935;28;134129;-80
2022/04/23 00:17:33;;;;;;;15.73;9.65;;;11.30;99.90;;;;;;4958468;28;20046;-80
2022/04/23 00:20:00;;;;;;;16.77;9.77;;;11.30;99.90;;;;;;4975860;28;38394;-78
2022/04/23 00:22:27;;;;;;;17.58;10.00;;;11.30;99.90;;;;;;4952597;28;20042;-78
2022/04/23 00:24:53;;;;;;;15.38;9.48;;;11.30;99.90;;;;;;4974216;28;260507;-78
2022/04/23 00:27:19;;;;;;;19.02;9.65;;;11.20;99.90;;;;;;4959819;28;20057;-79
2022/04/23 00:29:45;;;;;;;17.70;9.63;;;11.20;99.90;;;;;;4983542;28;265937;-78
2022/04/23 00:32:11;;;;;;;17.55;9.60;;;11.20;99.90;;;;;;4960047;28;20517;-78
2022/04/23 00:34:37;;;;;;;16.17;9.57;;;11.20;99.90;;;;;;4983289;28;244362;-78
2022/04/23 00:37:04;;;;;;;16.52;9.85;;;11.30;99.90;;;;;;4952310;28;20054;-78
2022/04/23 00:39:30;;;;;;;14.95;9.38;;;11.20;99.90;;;;;;4971447;28;271777;-80
2022/04/23 00:41:59;;;;;;;19.08;9.75;;;11.20;99.90;;;;;;4965576;28;20151;-79
2022/04/23 00:44:25;;;;;;;17.48;9.95;;;11.20;99.90;;;;;;4971192;28;183606;-80
2022/04/23 00:46:51;;;;;;;16.95;9.10;;;11.10;99.90;;;;;;4958894;28;20054;-78
2022/04/23 00:49:17;;;;;;;15.90;9.25;;;11.10;99.90;;;;;;4985085;28;242140;-79
2022/04/23 00:51:44;;;;;;;14.95;9.68;;;11.10;99.90;;;;;;4956900;28;20055;-79
2022/04/23 00:54:10;;;;;;;17.17;8.97;;;11.10;99.90;;;;;;4964071;28;252906;-78
2022/04/23 00:56:38;;;;;;;16.65;8.77;;;11.10;99.90;;;;;;4987043;28;20046;-79
2022/04/23 00:59:08;;;;;;;16.48;9.35;;;11.10;99.90;;;;;;4969095;28;250541;-78
2022/04/23 01:01:35;;;;;;;15.73;8.88;;;11.00;99.90;;;;;;4984224;28;20058;-79
2022/04/23 01:04:02;;;;;;;18.43;8.80;;;11.00;99.90;;;;;;4951906;28;249455;-78
2022/04/23 01:06:34;;;;;;;14.82;8.70;;;10.90;99.90;;;;;;4987742;28;20069;-78
2022/04/23 01:09:08;;;;;;;16.97;9.03;;;10.90;99.90;;;;;;4921636;28;261829;-78
2022/04/23 01:11:38;;;;;;;17.00;8.68;;;10.90;99.90;;;;;;4995030;28;20062;-79
2022/04/23 01:14:05;;;;;;;16.42;9.27;;;10.80;99.90;;;;;;4939248;28;243676;-78
2022/04/23 01:16:35;;;;;;;15.40;8.48;;;10.80;99.90;;;;;;4995288;28;20403;-79
2022/04/23 01:19:01;;;;;;;14.65;8.63;;;10.80;99.90;;;;;;4936767;28;278000;-79
2022/04/23 01:21:27;;;;;;;18.08;9.10;;;10.70;99.90;;;;;;4983030;28;20050;-79
2022/04/23 01:23:56;;;;;;;18.98;9.13;;;10.70;99.90;;;;;;4931937;28;266495;-79
2022/04/23 01:26:27;;;;;;;16.15;9.40;;;10.70;99.90;;;;;;4986590;28;20046;-79
2022/04/23 01:28:55;;;;;;;15.32;9.15;;;10.70;99.90;;;;;;4939216;28;272399;-79
2022/04/23 01:31:22;;;;;;;17.08;9.05;;;10.60;99.90;;;;;;4984073;28;20061;-79
2022/04/23 01:33:48;;;;;;;19.40;9.05;;;10.60;99.90;;;;;;4971554;28;20053;-78
2022/04/23 01:36:14;;;;;;;16.02;9.35;;;10.60;99.90;;;;;;4956864;28;59355;-79
2022/04/23 01:38:44;;;;;;;23.60;9.60;;;10.50;99.90;;;;;;4951162;28;20046;-79
2022/04/23 01:41:11;;;;;;;15.50;9.35;;;10.50;99.90;;;;;;4978773;28;276626;-78
2022/04/23 01:43:37;;;;;;;18.55;9.90;;;10.50;99.90;;;;;;4949060;28;20042;-79
2022/04/23 01:46:03;;;;;;;19.38;9.60;;;10.50;99.90;;;;;;4983976;28;251471;-79
2022/04/23 01:48:29;;;;;;;14.95;9.38;;;10.50;99.90;;;;;;4963200;28;20812;-78
2022/04/23 01:50:56;;;;;;;16.90;9.93;;;10.40;99.90;;;;;;4980499;28;273583;-78
2022/04/23 01:53:24;;;;;;;17.85;10.38;;;10.40;99.90;;;;;;4957717;28;20094;-79
2022/04/23 01:55:52;;;;;;;17.55;9.73;;;10.40;99.90;;;;;;4958691;28;77218;-78
2022/04/23 01:58:18;;;;;;;16.77;10.38;;;10.30;99.90;;;;;;4969144;28;20038;-78
2022/04/23 02:00:44;;;;;;;19.33;9.55;;;10.30;99.90;;;;;;4971959;28;125070;-78
2022/04/23 02:03:10;;;;;;;17.08;10.25;;;10.30;99.90;;;;;;4938011;28;20042;-78
2022/04/23 02:05:37;;;;;;;17.25;10.25;;;10.20;99.90;;;;;;4945643;28;126833;-79
2022/04/23 02:08:03;;;;;;;15.52;10.35;;;10.20;99.90;;;;;;4956798;28;20061;-79
2022/04/23 02:10:29;;;;;;;18.70;10.45;;;10.20;99.90;;;;;;4961225;28;249525;-79
2022/04/23 02:12:56;;;;;;;17.23;10.05;;;10.10;99.90;;;;;;4951862;28;20035;-79
2022/04/23 02:15:22;;;;;;;16.92;10.13;;;10.10;99.90;;;;;;4966962;28;51774;-79
2022/04/23 02:17:49;;;;;;;19.05;11.40;;;10.10;99.90;;;;;;4954537;28;20065;-78
2022/04/23 02:20:16;;;;;;;17.60;11.07;;;10.10;99.90;;;;;;4979085;28;259579;-79
2022/04/23 02:22:44;;;;;;;16.92;10.27;;;10.10;99.90;;;;;;4957740;28;20054;-79
2022/04/23 02:25:11;;;;;;;18.25;11.50;;;10.10;99.90;;;;;;4978709;28;253416;-79
2022/04/23 02:27:45;;;;;;;19.77;10.73;;;10.00;99.90;;;;;;4942027;28;20050;-79
2022/04/23 02:30:13;;;;;;;21.25;11.48;;;10.00;99.90;;;;;;4975396;28;109919;-79
2022/04/23 02:32:41;;;;;;;19.38;11.38;;;10.00;99.90;;;;;;4970216;28;20059;-79
2022/04/23 02:35:08;;;;;;;17.35;11.63;;;10.00;99.90;;;;;;4982456;28;286551;-79
2022/04/23 02:37:34;;;;;;;18.75;11.93;;;9.90;99.90;;;;;;4952558;28;20057;-79
2022/04/23 02:40:02;;;;;;;18.58;12.13;;;9.90;99.90;;;;;;4979259;28;275916;-78
2022/04/23 02:42:29;;;;;;;18.02;11.43;;;9.90;99.90;;;;;;4940919;28;20051;-78
2022/04/23 02:45:01;;;;;;;19.50;11.40;;;9.90;99.90;;;;;;4954347;28;259226;-79
2022/04/23 02:47:44;;;;;;;19.05;11.70;;;9.80;99.90;;;;;;4951208;28;20523;-79
2022/04/23 02:50:11;;;;;;;18.98;11.90;;;9.80;99.90;;;;;;4939595;28;73506;-79
2022/04/23 02:52:42;;;;;;;17.48;11.77;;;9.80;99.90;;;;;;4966877;28;20084;-79
2022/04/23 02:55:12;;;;;;;17.38;11.25;;;9.80;99.90;;;;;;4969049;28;222128;-79
2022/04/23 02:57:42;;;;;;;19.35;12.25;;;9.70;99.90;;;;;;4955128;28;20050;-79
2022/04/23 03:00:10;;;;;;;18.00;12.00;;;9.70;99.90;;;;;;4963041;28;126755;-80
2022/04/23 03:02:37;;;;;;;21.25;12.52;;;9.70;99.90;;;;;;4953736;28;20065;-79
2022/04/23 03:05:06;;;;;;;19.92;11.80;;;9.70;99.90;;;;;;4952136;28;111892;-79
2022/04/23 03:07:33;;;;;;;18.20;11.85;;;9.60;99.90;;;;;;4972254;28;20589;-79
2022/04/23 03:09:59;;;;;;;20.02;12.05;;;9.60;99.90;;;;;;4979018;28;48385;-79
2022/04/23 03:12:26;;;;;;;18.85;12.07;;;9.60;99.90;;;;;;4938246;28;20046;-79
2022/04/23 03:14:52;;;;;;;18.85;12.30;;;9.60;99.90;;;;;;4966617;28;92215;-80
2022/04/23 03:17:18;;;;;;;23.48;12.88;;;9.50;99.90;;;;;;4942639;28;20085;-80
2022/04/23 03:19:46;;;;;;;17.80;11.77;;;9.60;99.90;;;;;;4976051;28;113424;-79
2022/04/23 03:22:16;;;;;;;18.13;12.50;;;9.50;99.90;;;;;;4977683;28;20042;-79
2022/04/23 03:24:44;;;;;;;17.33;12.10;;;9.50;99.90;;;;;;4980480;28;263720;-79
2022/04/23 03:27:10;;;;;;;17.60;12.55;;;9.40;99.90;;;;;;4967187;28;20054;-79
2022/04/23 03:29:36;;;;;;;19.02;12.90;;;9.40;99.90;;;;;;4959168;28;135332;-79
2022/04/23 03:32:03;;;;;;;18.80;11.60;;;9.50;99.90;;;;;;4947346;28;20073;-79
2022/04/23 03:34:29;;;;;;;18.40;12.52;;;9.40;99.90;;;;;;4985991;28;264453;-79
2022/04/23 03:36:55;;;;;;;19.13;11.77;;;9.40;99.90;;;;;;4966985;28;20042;-79
2022/04/23 03:39:21;;;;;;;17.63;12.00;;;9.40;99.90;;;;;;4982600;28;262229;-79
2022/04/23 03:41:47;;;;;;;17.33;11.88;;;9.40;99.90;;;;;;4957690;28;20515;-79
2022/04/23 03:44:14;;;;;;;18.80;12.10;;;9.40;99.90;;;;;;4967936;28;252447;-79
2022/04/23 03:46:40;;;;;;;19.95;12.65;;;9.30;99.90;;;;;;4951417;28;20073;-79
2022/04/23 03:49:08;;;;;;;19.23;12.77;;;9.30;99.90;;;;;;4970175;28;272412;-79
2022/04/23 03:51:35;;;;;;;19.83;11.98;;;9.30;99.90;;;;;;4980347;28;20059;-79
2022/04/23 03:54:01;;;;;;;19.93;12.57;;;9.20;99.90;;;;;;4962079;28;253966;-79
2022/04/23 03:56:28;;;;;;;19.45;11.82;;;9.20;99.90;;;;;;4957062;28;20372;-79
2022/04/23 03:58:55;;;;;;;18.98;13.00;;;9.20;99.90;;;;;;4922536;28;260438;-80
2022/04/23 04:01:21;;;;;;;18.02;12.00;;;9.20;99.90;;;;;;4952860;28;20264;-80
2022/04/23 04:03:47;;;;;;;18.98;12.30;;;9.20;99.90;;;;;;4966615;28;20042;-79
2022/04/23 04:06:13;;;;;;;16.70;12.20;;;9.20;99.90;;;;;;4966169;28;261187;-79
2022/04/23 04:08:39;;;;;;;18.40;12.00;;;9.10;99.90;;;;;;4941127;28;20053;-79
2022/04/23 04:11:05;;;;;;;19.52;12.05;;;9.10;99.90;;;;;;4971313;28;250664;-79
2022/04/23 04:13:32;;;;;;;19.60;12.25;;;9.10;99.90;;;;;;4945501;28;20093;-79
2022/04/23 04:15:58;;;;;;;19.95;12.35;;;9.10;99.90;;;;;;4969081;28;221086;-80
2022/04/23 04:18:24;;;;;;;19.02;12.40;;;9.10;99.90;;;;;;4973657;28;20042;-80
2022/04/23 04:20:53;;;;;;;18.98;11.93;;;9.00;99.90;;;;;;4970883;28;260623;-79
2022/04/23 04:23:20;;;;;;;16.90;12.30;;;9.00;99.90;;;;;;4950298;28;20057;-79
2022/04/23 04:25:48;;;;;;;17.85;11.70;;;9.00;99.90;;;;;;4975514;28;200306;-79
2022/04/23 04:28:14;;;;;;;18.98;12.07;;;9.00;99.90;;;;;;4975998;28;20057;-79
2022/04/23 04:33:25;;;;;;;17.35;12.07;;;9.00;99.90;;;;;;4968741;28;20061;-79
2022/04/23 04:35:52;;;;;;;16.70;12.00;;;9.00;99.90;;;;;;4970711;28;56567;-79
2022/04/23 04:38:18;;;;;;;20.05;11.57;;;9.00;99.90;;;;;;4973657;28;20037;-79
2022/04/23 04:40:44;;;;;;;16.92;12.38;;;9.00;99.90;;;;;;4983020;28;265928;-79
2022/04/23 04:43:16;;;;;;;17.83;11.63;;;9.00;99.90;;;;;;4963701;28;20772;-79
2022/04/23 04:45:42;;;;;;;17.38;11.95;;;9.00;99.90;;;;;;4970933;28;100393;-78
2022/04/23 04:48:08;;;;;;;18.00;12.32;;;9.00;99.90;;;;;;4957057;28;20049;-79
2022/04/23 04:50:34;;;;;;;16.55;11.07;;;9.00;99.90;;;;;;4989252;28;245229;-79
2022/04/23 04:53:00;;;;;;;16.13;11.50;;;9.00;99.90;;;;;;4960573;28;20046;-79
2022/04/23 04:55:27;;;;;;;16.25;11.43;;;9.00;99.90;;;;;;4974814;28;181626;-79
2022/04/23 04:57:53;;;;;;;17.40;11.70;;;9.00;99.90;;;;;;4951401;28;20052;-79
2022/04/23 05:00:20;;;;;;;18.02;12.20;;;9.00;99.90;;;;;;4970872;28;80093;-79
2022/04/23 05:02:46;;;;;;;19.25;11.65;;;9.00;99.90;;;;;;4949835;28;20050;-80
2022/04/23 05:05:12;;;;;;;16.40;11.68;;;9.00;99.90;;;;;;4928150;28;174798;-78
2022/04/23 05:07:38;;;;;;;16.42;11.73;;;9.10;99.90;;;;;;4953838;28;20054;-78
2022/04/23 05:10:05;;;;;;;16.83;11.15;;;9.10;99.90;;;;;;4981883;28;260427;-79
2022/04/23 05:12:31;;;;;;;15.73;12.10;;;9.10;99.90;;;;;;4975943;28;20044;-79
2022/04/23 05:14:57;;;;;;;14.88;11.18;;;9.20;99.90;;;;;;4985195;28;270517;-79
2022/04/23 05:17:23;;;;;;;18.17;11.00;;;9.20;99.90;;;;;;4968182;28;20042;-79
2022/04/23 05:19:49;;;;;;;16.02;11.32;;;9.30;99.90;;;;;;4967356;28;259252;-79
2022/04/23 05:22:15;;;;;;;16.20;11.25;;;9.20;99.90;;;;;;4946403;28;20054;-79
2022/04/23 05:24:41;;;;;;;16.23;11.55;;;9.30;99.90;;;;;;4950698;28;86932;-79
2022/04/23 05:27:08;;;;;;;17.30;11.80;;;9.30;99.90;;;;;;4949537;28;20042;-79
2022/04/23 05:29:34;;;;;;;15.38;11.25;;;9.30;99.90;;;;;;4979557;28;272678;-79
2022/04/23 05:32:00;;;;;;;18.35;11.60;;;9.40;99.90;;;;;;4958196;28;20449;-80
2022/04/23 05:34:28;;;;;;;17.15;12.32;;;9.40;99.90;;;;;;4983366;28;254579;-79
2022/04/23 05:36:54;;;;;;;15.75;11.57;;;9.40;99.90;;;;;;4981850;28;20050;-81
2022/04/23 05:39:20;;;;;;;15.88;11.52;;;9.50;99.90;;;;;;4990161;28;246426;-79
2022/04/23 05:41:46;;;;;;;16.25;11.88;;;9.50;99.90;;;;;;4956755;28;20050;-79
2022/04/23 05:44:13;;;;;;;14.45;11.35;;;9.50;99.90;;;;;;4945260;28;260718;-79
2022/04/23 05:46:39;;;;;;;17.10;11.45;;;9.60;99.90;;;;;;4972448;28;20058;-79
2022/04/23 05:49:05;;;;;;;15.50;11.83;;;9.60;99.90;;;;;;4966277;28;274952;-79
2022/04/23 05:51:31;;;;;;;15.93;11.20;;;9.60;99.90;;;;;;4972167;28;20046;-79
2022/04/23 05:53:57;;;;;;;16.17;11.77;;;9.70;99.90;;;;;;4954217;28;253116;-79
2022/04/23 05:56:23;;;;;;;16.35;11.05;;;9.80;99.90;;;;;;4968907;28;20057;-79
2022/04/23 05:58:49;;;;;;;16.30;11.73;;;9.80;99.90;;;;;;4954163;28;20643;-78
2022/04/23 06:01:16;;;;;;;14.77;11.60;;;9.90;99.90;;;;;;4958564;28;52309;-79
2022/04/23 06:03:42;;;;;;;15.18;10.85;;;9.90;99.90;;;;;;4968514;28;20076;-79
2022/04/23 06:06:09;;;;;;;16.20;11.40;;;10.00;99.90;;;;;;4949122;28;151050;-77
2022/04/23 06:08:41;;;;;;;16.00;11.35;;;10.20;99.90;;;;;;4950151;28;20047;-77
2022/04/23 06:11:07;;;;;;;14.60;10.68;;;10.40;99.90;;;;;;4988630;28;256928;-78
2022/04/23 06:13:34;;;;;;;16.33;10.98;;;10.50;99.90;;;;;;4982637;28;20049;-79
2022/04/23 06:16:00;;;;;;;17.63;11.52;;;10.80;99.90;;;;;;4997121;28;257334;-79
2022/04/23 06:18:26;;;;;;;15.75;10.57;;;11.10;99.90;;;;;;4987864;28;20042;-79
2022/04/23 06:20:52;;;;;;;14.45;9.98;;;11.30;99.90;;;;;;4984734;28;265463;-78
2022/04/23 06:23:18;;;;;;;14.63;10.40;;;11.30;99.90;;;;;;4944355;28;20137;-79
2022/04/23 06:25:44;;;;;;;15.70;10.50;;;11.20;99.90;;;;;;4977928;28;169793;-77
2022/04/23 06:28:11;;;;;;;14.00;10.18;;;11.40;99.90;;;;;;4959165;28;20338;-77
2022/04/23 06:30:38;;;;;;;14.73;10.38;;;11.60;99.90;;;;;;4976887;28;61479;-77
2022/04/23 06:33:04;;;;;;;13.68;10.10;;;11.80;99.90;;;;;;4970133;28;20056;-78
2022/04/23 06:35:31;;;;;;;13.70;9.75;;;12.10;99.90;;;;;;4961631;28;24772;-79
2022/04/23 06:37:57;;;;;;;14.43;10.25;;;12.40;99.90;;;;;;4954525;28;20100;-79
2022/04/23 06:40:23;;;;;;;13.60;9.57;;;12.50;99.90;;;;;;4987567;28;254356;-80
2022/04/23 06:42:49;;;;;;;14.93;10.20;;;12.70;99.90;;;;;;4956171;28;20408;-79
2022/04/23 06:45:16;;;;;;;13.75;9.07;;;12.80;99.90;;;;;;4987786;28;96881;-79
2022/04/23 06:47:42;;;;;;;13.10;9.38;;;13.10;99.90;;;;;;4962047;28;20058;-77
2022/04/23 06:50:08;;;;;;;13.50;9.23;;;13.20;99.90;;;;;;4972002;28;177056;-78
2022/04/23 06:52:35;;;;;;;14.00;9.88;;;13.40;99.90;;;;;;4967990;28;20046;-78
2022/04/23 06:55:01;;;;;;;14.95;9.43;;;13.40;99.90;;;;;;4971670;28;99837;-78
2022/04/23 06:57:27;;;;;;;14.05;9.35;;;13.60;99.90;;;;;;4968172;28;20042;-77
2022/04/23 06:59:53;;;;;;;13.88;9.20;;;13.80;99.90;;;;;;4956176;28;67520;-78
2022/04/23 07:02:20;;;;;;;15.63;9.25;;;14.00;99.90;;;;;;4950742;28;20396;-78
2022/04/23 07:04:47;;;;;;;13.18;9.20;;;14.20;99.90;;;;;;4963954;28;238852;-78
2022/04/23 07:07:14;;;;;;;13.38;8.88;;;14.20;99.90;;;;;;4952728;28;20054;-78
2022/04/23 07:09:40;;;;;;;12.60;8.80;;;14.40;99.90;;;;;;4981242;28;293394;-78
2022/04/23 07:12:07;;;;;;;14.98;8.90;;;14.60;99.90;;;;;;4954833;28;20062;-78
2022/04/23 07:14:33;;;;;;;12.38;8.75;;;14.70;99.90;;;;;;4951197;28;185859;-77
2022/04/23 07:16:59;;;;;;;12.55;9.02;;;14.70;99.90;;;;;;4971423;28;20067;-78
2022/04/23 07:19:25;;;;;;;13.70;8.73;;;14.80;99.90;;;;;;4981858;28;268125;-79
2022/04/23 07:21:51;;;;;;;13.88;8.85;;;15.00;99.90;;;;;;4968891;28;20422;-79
2022/04/23 07:24:18;;;;;;;14.98;8.57;;;15.20;99.40;;;;;;4966774;28;180389;-78
2022/04/23 07:26:44;;;;;;;13.60;8.80;;;15.20;98.30;;;;;;4958849;28;20065;-79
2022/04/23 07:29:11;;;;;;;12.87;8.80;;;15.40;98.60;;;;;;4967009;28;278041;-78
2022/04/23 07:31:38;;;;;;;12.38;8.80;;;15.50;98.00;;;;;;4980922;28;20165;-77
2022/04/23 07:39:36;;;;;;;13.35;8.52;;;16.10;96.90;;;;;;4978020;28;272297;-79
2022/04/23 07:42:04;;;;;;;15.65;8.48;;;16.20;95.80;;;;;;4971118;28;20694;-79
2022/04/23 07:44:30;;;;;;;12.25;7.32;;;16.40;95.60;;;;;;4966742;28;255637;-79
2022/04/23 07:46:56;;;;;;;14.35;7.72;;;16.50;94.30;;;;;;4962873;28;20043;-80
2022/04/23 07:49:22;;;;;;;13.38;7.75;;;16.50;94.70;;;;;;4975188;28;254633;-81
2022/04/23 07:51:50;;;;;;;13.02;7.60;;;16.30;93.20;;;;;;4961915;28;20050;-80
2022/04/23 07:54:16;;;;;;;14.13;7.97;;;16.40;92.80;;;;;;4962131;28;233034;-79
2022/04/23 07:56:44;;;;;;;14.20;7.80;;;16.50;93.30;;;;;;4942691;28;20085;-79
2022/04/23 07:59:10;;;;;;;12.32;7.40;;;16.70;93.10;;;;;;4947469;28;249547;-79
2022/04/23 08:01:36;;;;;;;11.57;7.82;;;16.80;92.10;;;;;;4966045;28;20057;-78
2022/04/23 08:04:03;;;;;;;16.13;7.70;;;16.80;91.50;;;;;;4942805;28;248247;-79
2022/04/23 08:06:33;;;;;;;14.00;7.70;;;16.90;91.00;;;;;;4965931;28;20534;-79
2022/04/23 08:09:00;;;;;;;13.40;7.60;;;17.00;90.60;;;;;;4944965;28;276121;-78
2022/04/23 08:11:29;;;;;;;12.65;7.97;;;17.20;90.30;;;;;;4986112;28;20451;-83
2022/04/23 08:13:56;;;;;;;16.27;7.93;;;17.40;90.00;;;;;;4954695;28;249803;-78
2022/04/23 08:16:22;;;;;;;13.55;7.55;;;17.50;89.10;;;;;;4997751;28;20058;-77
2022/04/23 08:18:49;;;;;;;11.57;7.70;;;17.70;90.00;;;;;;4959353;28;20061;-77
2022/04/23 08:21:15;;;;;;;11.27;7.75;;;17.90;86.90;;;;;;4971691;28;129287;-76
2022/04/23 08:23:41;;;;;;;14.75;8.10;;;17.90;86.50;;;;;;4966874;28;20042;-76
2022/04/23 08:26:07;;;;;;;13.18;7.97;;;18.20;86.20;;;;;;4983034;28;255683;-76
2022/04/23 08:31:18;;;;;;;12.43;7.78;;;18.50;82.70;;;;;;4956684;28;20050;-77
2022/04/23 08:33:59;;;;;;;13.93;7.85;;;18.60;81.00;;;;;;4955097;28;20046;-78
2022/04/23 08:36:28;;;;;;;13.40;7.53;;;18.80;82.10;;;;;;4959841;28;20045;-78
2022/04/23 08:38:55;;;;;;;12.43;7.22;;;18.90;80.10;;;;;;4954397;28;265780;-77
2022/04/23 08:41:27;;;;;;;13.18;7.70;;;18.90;76.60;;;;;;5001527;28;20057;-78
2022/04/23 08:43:54;;;;;;;13.55;7.53;;;18.90;74.50;;;;;;4954119;28;246374;-77
2022/04/23 08:46:21;;;;;;;10.73;7.35;;;18.90;73.80;;;;;;4996670;28;20051;-77
2022/04/23 08:48:50;;;;;;;13.23;7.90;;;18.80;74.60;;;;;;4965841;28;20144;-77
2022/04/23 08:51:20;;;;;;;11.05;7.50;;;18.90;73.90;;;;;;4987431;28;122709;-77
2022/04/23 08:53:47;;;;;;;12.23;7.53;;;19.10;73.00;;;;;;4955348;28;20045;-77
2022/04/23 08:56:13;;;;;;;12.85;7.25;;;19.30;72.90;;;;;;4968943;28;70678;-78
2022/04/23 08:58:39;;;;;;;15.23;7.55;;;19.60;73.80;;;;;;4948928;28;20686;-77
2022/04/23 09:01:06;;;;;;;13.05;7.75;;;19.80;71.70;;;;;;4952844;28;156516;-77
2022/04/23 09:03:33;;;;;;;14.68;7.53;;;19.80;69.60;;;;;;4943308;28;20049;-78
2022/04/23 09:05:59;;;;;;;12.93;7.53;;;20.10;70.30;;;;;;4925997;28;189275;-78
2022/04/23 09:08:29;;;;;;;12.15;7.15;;;20.20;67.40;;;;;;4953451;28;20034;-78
2022/04/23 09:10:55;;;;;;;11.23;7.65;;;20.00;65.80;;;;;;4977607;28;251642;-77
2022/04/23 09:13:25;;;;;;;13.40;6.82;;;20.10;65.10;;;;;;4956509;28;20038;-77
2022/04/23 09:24:20;;;;;;;12.98;7.30;;;20.50;61.00;;;;;;4949951;28;262276;-78
2022/04/23 09:27:03;;;;;;;12.73;6.53;;;20.70;61.20;;;;;;4932192;28;20069;-77
2022/04/23 09:29:30;;;;;;;11.18;6.80;;;20.80;56.50;;;;;;4955652;28;20054;-78
2022/04/23 09:32:14;;;;;;;15.35;7.57;;;21.10;59.20;;;;;;4931586;28;20047;-77
2022/04/23 09:34:41;;;;;;;13.23;6.97;;;21.60;57.50;;;;;;4967154;28;171040;-78
2022/04/23 09:37:08;;;;;;;14.80;6.75;;;21.80;56.50;;;;;;4968056;28;20038;-77
2022/04/23 09:39:38;;;;;;;16.55;6.80;;;21.70;53.50;;;;;;4971758;28;274151;-78
2022/04/23 09:42:14;;;;;;;16.08;6.70;;;21.30;53.50;;;;;;4974611;28;20756;-78
2022/04/23 09:44:40;;;;;;;10.60;6.90;;;21.30;53.20;;;;;;4970444;28;20069;-78
2022/04/23 09:47:07;;;;;;;12.88;6.70;;;21.40;53.20;;;;;;4961709;28;20042;-78
2022/04/23 09:49:34;;;;;;;16.40;6.55;;;21.50;53.20;;;;;;4942635;28;232422;-77
2022/04/23 09:52:04;;;;;;;10.70;6.22;;;21.60;53.20;;;;;;4947669;28;20549;-77
2022/04/23 09:54:31;;;;;;;12.15;6.35;;;21.70;52.80;;;;;;4982763;28;250698;-78
2022/04/23 09:56:58;;;;;;;12.18;6.30;;;22.10;52.40;;;;;;4966782;28;20082;-79
2022/04/23 09:59:26;;;;;;;13.45;6.32;;;22.20;50.10;;;;;;4951054;28;173812;-79
2022/04/23 10:01:54;;;;;;;11.00;5.95;;;21.90;48.70;;;;;;4942869;28;20061;-76
2022/04/23 10:04:25;;;;;;;12.27;5.95;;;22.20;50.20;;;;;;4945303;28;291184;-79
2022/04/23 10:06:51;;;;;;;;;;;22.00;48.30;;;;;;4938343;28;20094;-78
2022/04/23 10:09:24;;;;;;;10.95;6.28;;;22.10;47.50;;;;;;4979593;28;266582;-78
2022/04/23 10:12:02;;;;;;;16.80;6.72;;;22.30;49.80;;;;;;4969166;28;20046;-79
2022/04/23 10:14:35;;;;;;;15.18;6.63;;;22.50;48.60;;;;;;4958628;28;197975;-80
2022/04/23 10:17:05;;;;;;;11.88;6.65;;;22.40;48.10;;;;;;4940352;28;20429;-79
2022/04/23 10:19:32;;;;;;;11.23;6.30;;;22.40;47.90;;;;;;4964766;28;135218;-79
2022/04/23 10:22:11;;;;;;;12.07;6.00;;;22.60;47.80;;;;;;4967114;28;20061;-78
2022/04/23 10:25:00;;;;;;;11.45;6.55;;;22.90;46.40;;;;;;4974302;28;252199;-79
2022/04/23 10:27:28;;;;;;;14.63;6.50;;;23.00;46.90;;;;;;4969660;28;20057;-80
2022/04/23 10:29:56;;;;;;;17.17;6.78;;;23.00;46.60;;;;;;4971586;28;122218;-79
2022/04/23 10:32:24;;;;;;;16.27;6.55;;;23.10;46.40;;;;;;4944249;28;20046;-77
2022/04/23 10:34:50;;;;;;;10.35;5.95;;;23.10;45.80;;;;;;4968336;28;136600;-79
2022/04/23 10:37:20;;;;;;;13.65;6.40;;;23.20;46.30;;;;;;4946750;28;20049;-79
2022/04/23 10:39:52;;;;;;;13.98;6.15;;;23.40;46.20;;;;;;4982400;28;273257;-80
2022/04/23 10:42:21;;;;;;;9.90;6.22;;;23.50;44.90;;;;;;4952170;28;20042;-79
2022/04/23 10:44:49;;;;;;;13.13;6.40;;;23.00;44.80;;;;;;4989254;28;306256;-79
2022/04/23 10:47:32;;;;;;;11.20;6.40;;;23.20;44.30;;;;;;4977239;28;20063;-79
2022/04/23 10:50:13;;;;;;;12.18;6.13;;;23.40;45.10;;;;;;4976595;28;150479;-80
2022/04/23 10:52:40;;;;;;;10.45;6.13;;;24.10;44.30;;;;;;4976999;28;20177;-80
2022/04/23 10:55:10;;;;;;;12.65;6.63;;;24.40;43.50;;;;;;4982991;28;269616;-80
2022/04/23 10:57:39;;;;;;;12.45;6.30;;;24.30;42.30;;;;;;4962664;28;20054;-80
2022/04/23 11:00:19;;;;;;;13.88;6.40;;;24.00;42.50;;;;;;4975769;28;218892;-80
2022/04/23 11:02:54;;;;;;;10.18;6.22;;;23.90;41.50;;;;;;4983243;28;20054;-80
2022/04/23 11:14:45;;;;;;;12.30;6.40;;;24.00;41.90;;;;;;4944851;28;257490;-78
2022/04/23 11:17:18;;;;;;;12.07;6.20;;;24.30;40.90;;;;;;4960903;28;20187;-78
2022/04/23 11:19:45;;;;;;;13.05;6.03;;;24.20;41.80;;;;;;4985941;28;259094;-79
2022/04/23 11:22:13;;;;;;;12.88;6.10;;;24.30;41.60;;;;;;4955813;28;20049;-79
2022/04/23 11:24:40;;;;;;;11.57;6.10;;;24.70;41.10;;;;;;4985900;28;258541;-78
2022/04/23 11:27:08;;;;;;;10.30;6.25;;;24.80;40.90;;;;;;4958015;28;20057;-78
2022/04/23 11:29:34;;;;;;;14.68;6.60;;;24.90;39.50;;;;;;4978735;28;135229;-80
2022/04/23 11:32:01;;;;;;;12.13;6.25;;;24.90;40.30;;;;;;4987096;28;20047;-79
2022/04/23 11:34:27;;;;;;;10.88;6.35;;;24.90;40.20;;;;;;4972819;28;187168;-79
2022/04/23 11:36:54;;;;;;;10.48;6.40;;;25.20;40.40;;;;;;4975457;28;20123;-78
2022/04/23 11:39:27;;;;;;;13.57;6.40;;;25.30;38.90;;;;;;4971778;28;207598;-79
2022/04/23 11:41:54;;;;;;;12.07;6.30;;;25.20;38.90;;;;;;4987928;28;20061;-80
2022/04/23 11:47:10;;;;;;;10.32;6.07;;;25.40;38.80;;;;;;4963317;28;20053;-81
2022/04/23 11:49:36;;;;;;;10.82;6.13;;;25.20;38.00;;;;;;4985676;28;268337;-80
2022/04/23 11:52:11;;;;;;;15.60;6.88;;;25.20;38.10;;;;;;4955484;28;20045;-80
2022/04/23 11:54:48;;;;;;;12.63;6.53;;;25.40;38.50;;;;;;4982415;28;219385;-80
2022/04/23 11:57:16;;;;;;;12.80;6.30;;;25.60;37.10;;;;;;4966562;28;20056;-80
2022/04/23 11:59:45;;;;;;;12.32;7.07;;;25.60;38.60;;;;;;5000821;28;266530;-80
2022/04/23 12:02:26;;;;;;;10.55;6.47;;;25.60;38.20;;;;;;4981881;28;20046;-80
2022/04/23 12:04:57;;;;;;;9.80;6.35;;;25.70;38.60;;;;;;4967045;28;252669;-79
2022/04/23 12:07:24;;;;;;;10.55;6.40;;;26.00;38.10;;;;;;4966877;28;20050;-80
2022/04/23 12:09:51;;;;;;;10.98;6.28;;;25.90;37.30;;;;;;4978610;28;107953;-80
2022/04/23 12:12:28;;;;;;;13.52;5.95;;;25.90;37.30;;;;;;4969186;28;20054;-80
2022/04/23 12:14:59;;;;;;;11.73;5.70;;;25.90;37.10;;;;;;4984480;28;106536;-80
2022/04/23 12:17:26;;;;;;;9.75;5.80;;;25.60;36.50;;;;;;4976725;28;20042;-80
2022/04/23 12:19:54;;;;;;;9.80;5.90;;;25.70;36.80;;;;;;4980484;28;97105;-79
2022/04/23 12:22:31;;;;;;;9.90;5.55;;;25.60;36.70;;;;;;4972036;28;20053;-79
2022/04/23 12:25:16;;;;;;;11.68;5.50;;;25.80;36.90;;;;;;4972929;28;227323;-79
2022/04/23 12:27:54;;;;;;;9.73;5.50;;;25.60;35.00;;;;;;4954213;28;20401;-79
2022/04/23 12:42:04;;;;;;;12.82;5.32;;;26.30;35.20;;;;;;4945868;28;20077;-79
2022/04/23 12:44:37;;;;;;;9.52;5.13;;;26.40;34.90;;;;;;4974426;28;89347;-78
2022/04/23 12:47:05;;;;;;;12.00;5.13;;;26.20;35.40;;;;;;4941542;28;20038;-79
2022/04/23 12:49:52;;;;;;;9.02;5.40;;;26.50;35.40;;;;;;4969424;28;20061;-79
2022/04/23 12:52:22;;;;;;;9.18;4.90;;;26.60;33.90;;;;;;4955952;28;20047;-80
2022/04/23 12:55:10;;;;;;;10.90;5.18;;;26.20;33.80;;;;;;4966237;28;272368;-79
2022/04/23 12:57:36;;;;;;;9.23;4.97;;;26.10;34.00;;;;;;4962149;28;20055;-79
2022/04/23 13:00:04;;;;;;;10.25;5.03;;;25.90;34.10;;;;;;4983826;28;246546;-79
2022/04/23 13:02:35;;;;;;;14.70;4.80;;;25.90;33.70;;;;;;4957943;28;20042;-78
2022/04/23 13:05:07;;;;;;;10.45;4.88;;;25.80;34.40;;;;;;4945520;28;126201;-78
2022/04/23 13:10:18;;;;;;;11.75;5.03;;;26.00;33.90;;;;;;4976803;28;276444;-81
2022/04/23 13:12:46;;;;;;;11.70;4.95;;;26.00;33.20;;;;;;4975257;28;20049;-81
2022/04/23 13:15:15;;;;;;;9.55;4.40;;;26.30;34.20;;;;;;4978627;28;263822;-81
2022/04/23 13:17:42;;;;;;;10.60;4.80;;;26.40;34.10;;;;;;4954190;28;20046;-78
2022/04/23 13:20:10;;;;;;;10.48;4.70;;;26.60;33.90;;;;;;4968904;28;117762;-80
2022/04/23 13:22:37;;;;;;;11.18;5.00;;;26.80;34.20;;;;;;4975337;28;20065;-80